createdAt,value
2018-11-13T00:00:29.855Z,13.55
2018-11-13T00:02:59.295Z,13.47
2018-11-13T00:05:28.471Z,13.48
2018-11-13T00:07:57.575Z,13.46
2018-11-13T00:10:26.558Z,13.37
2018-11-13T00:12:55.556Z,13.33
2018-11-13T00:15:24.643Z,13.34
2018-11-13T00:17:53.631Z,13.28
2018-11-13T00:20:22.622Z,13.23
2018-11-13T00:22:51.631Z,13.26
2018-11-13T00:25:20.991Z,13.34
2018-11-13T00:27:49.992Z,13.39
2018-11-13T00:30:23.168Z,13.37
2018-11-13T00:32:52.331Z,13.29
2018-11-13T00:35:21.915Z,13.22
2018-11-13T00:37:51.459Z,13.21
2018-11-13T00:40:20.479Z,13.16
2018-11-13T00:42:49.798Z,13.10
2018-11-13T00:45:18.817Z,13.08
2018-11-13T00:47:47.784Z,13.05
2018-11-13T00:50:18.898Z,12.93
2018-11-13T00:52:48.135Z,13.00
2018-11-13T00:55:17.200Z,13.00
2018-11-13T00:57:46.269Z,13.08
2018-11-13T01:00:16.984Z,13.05
2018-11-13T01:02:46.109Z,13.03
2018-11-13T01:05:16.424Z,13.03
2018-11-13T01:07:46.479Z,13.10
2018-11-13T01:10:16.279Z,13.18
2018-11-13T01:12:45.883Z,13.13
2018-11-13T01:15:15.911Z,13.09
2018-11-13T01:17:45.551Z,13.05
2018-11-13T01:20:15.398Z,13.01
2018-11-13T01:22:44.398Z,12.95
2018-11-13T01:25:14.511Z,12.96
2018-11-13T01:27:44.118Z,12.97
2018-11-13T01:30:13.872Z,12.99
2018-11-13T01:32:43.513Z,13.00
2018-11-13T01:35:13.700Z,13.10
2018-11-13T01:37:42.816Z,13.31
2018-11-13T01:40:12.944Z,13.28
2018-11-13T01:42:42.267Z,13.21
2018-11-13T01:45:12.395Z,13.11
2018-11-13T01:47:41.676Z,13.05
2018-11-13T01:50:11.131Z,13.00
2018-11-13T01:52:40.144Z,12.96
2018-11-13T01:55:10.786Z,12.90
2018-11-13T01:57:39.796Z,12.89
2018-11-13T02:00:23.376Z,12.87
2018-11-13T02:02:54.540Z,12.87
2018-11-13T02:05:24.635Z,12.84
2018-11-13T02:07:54.208Z,12.87
2018-11-13T02:10:23.252Z,12.84
2018-11-13T02:12:52.661Z,12.82
2018-11-13T02:15:22.057Z,12.82
2018-11-13T02:17:51.049Z,12.82
2018-11-13T02:20:21.288Z,12.82
2018-11-13T02:22:50.279Z,12.80
2018-11-13T02:25:20.268Z,12.84
2018-11-13T02:27:49.588Z,12.87
2018-11-13T02:30:19.928Z,12.79
2018-11-13T02:32:49.197Z,12.80
2018-11-13T02:35:18.374Z,12.80
2018-11-13T02:37:47.364Z,12.79
2018-11-13T02:40:16.364Z,12.88
2018-11-13T02:42:45.348Z,12.98
2018-11-13T02:45:16.102Z,12.89
2018-11-13T02:47:45.136Z,12.84
2018-11-13T02:50:16.503Z,12.67
2018-11-13T02:52:45.501Z,12.59
2018-11-13T02:55:14.853Z,12.61
2018-11-13T02:57:44.403Z,12.68
2018-11-13T03:00:15.125Z,12.59
2018-11-13T03:02:44.223Z,12.66
2018-11-13T03:05:14.432Z,12.63
2018-11-13T03:07:43.433Z,12.68
2018-11-13T03:10:13.653Z,12.64
2018-11-13T03:12:42.671Z,12.61
2018-11-13T03:15:12.991Z,12.64
2018-11-13T03:17:42.136Z,12.65
2018-11-13T03:20:13.016Z,12.64
2018-11-13T03:22:42.571Z,12.63
2018-11-13T03:25:13.931Z,12.67
2018-11-13T03:27:42.908Z,12.76
2018-11-13T03:30:15.735Z,12.74
2018-11-13T03:32:44.923Z,12.77
2018-11-13T03:35:13.879Z,12.72
2018-11-13T03:37:43.032Z,12.73
2018-11-13T03:40:12.822Z,12.68
2018-11-13T03:42:42.180Z,12.67
2018-11-13T03:45:11.937Z,12.63
2018-11-13T03:47:40.914Z,12.58
2018-11-13T03:50:13.279Z,12.65
2018-11-13T03:52:42.728Z,12.61
2018-11-13T03:55:12.379Z,12.60
2018-11-13T03:57:42.259Z,12.54
2018-11-13T04:00:13.367Z,12.59
2018-11-13T04:02:42.477Z,12.57
2018-11-13T04:05:12.716Z,12.55
2018-11-13T04:07:56.100Z,12.55
2018-11-13T04:10:25.420Z,12.58
2018-11-13T04:12:54.416Z,12.56
2018-11-13T04:15:24.560Z,12.55
2018-11-13T04:17:53.844Z,12.57
2018-11-13T04:20:23.440Z,12.52
2018-11-13T04:22:52.446Z,12.51
2018-11-13T04:25:21.463Z,12.51
2018-11-13T04:27:50.447Z,12.48
2018-11-13T04:30:19.641Z,12.53
2018-11-13T04:32:48.671Z,12.49
2018-11-13T04:35:18.312Z,12.46
2018-11-13T04:37:47.309Z,12.41
2018-11-13T04:40:17.428Z,12.41
2018-11-13T04:42:50.597Z,12.36
2018-11-13T04:45:20.999Z,12.43
2018-11-13T04:47:50.455Z,12.37
2018-11-13T04:50:20.463Z,12.35
2018-11-13T04:52:49.495Z,12.29
2018-11-13T04:55:18.931Z,12.31
2018-11-13T04:57:48.723Z,12.33
2018-11-13T05:00:19.163Z,12.30
2018-11-13T05:02:48.143Z,12.27
2018-11-13T05:05:17.917Z,12.25
2018-11-13T05:07:51.027Z,12.28
2018-11-13T05:10:20.059Z,12.29
2018-11-13T05:12:49.275Z,12.25
2018-11-13T05:15:18.284Z,12.34
2018-11-13T05:17:47.608Z,12.26
2018-11-13T05:20:17.311Z,12.23
2018-11-13T05:22:46.343Z,12.22
2018-11-13T05:25:17.544Z,12.29
2018-11-13T05:27:46.549Z,12.28
2018-11-13T05:30:19.809Z,12.25
2018-11-13T05:32:48.878Z,12.22
2018-11-13T05:35:18.905Z,12.21
2018-11-13T05:37:48.127Z,12.20
2018-11-13T05:40:19.504Z,12.16
2018-11-13T05:42:48.504Z,12.27
2018-11-13T05:45:19.021Z,12.34
2018-11-13T05:47:48.012Z,12.28
2018-11-13T05:50:17.696Z,12.31
2018-11-13T05:52:47.975Z,12.25
2018-11-13T05:55:17.276Z,12.23
2018-11-13T05:57:46.390Z,12.19
2018-11-13T06:00:24.706Z,12.19
2018-11-13T06:02:53.700Z,12.23
2018-11-13T06:05:22.710Z,12.17
2018-11-13T06:07:51.725Z,12.19
2018-11-13T06:10:20.708Z,12.17
2018-11-13T06:12:49.815Z,12.18
2018-11-13T06:15:18.831Z,12.19
2018-11-13T06:17:47.812Z,12.21
2018-11-13T06:20:16.897Z,12.19
2018-11-13T06:22:45.966Z,12.13
2018-11-13T06:25:16.056Z,12.09
2018-11-13T06:27:46.207Z,12.13
2018-11-13T06:30:19.595Z,12.12
2018-11-13T06:32:49.075Z,12.11
2018-11-13T06:35:18.072Z,12.13
2018-11-13T06:37:47.079Z,12.13
2018-11-13T06:40:16.072Z,12.20
2018-11-13T06:42:45.162Z,12.14
2018-11-13T06:45:17.203Z,12.20
2018-11-13T06:47:46.878Z,12.22
2018-11-13T06:50:15.863Z,12.15
2018-11-13T06:52:45.517Z,12.16
2018-11-13T06:55:18.420Z,12.19
2018-11-13T06:57:47.428Z,12.20
2018-11-13T07:00:16.472Z,12.14
2018-11-13T07:02:45.469Z,12.22
2018-11-13T07:05:15.648Z,12.16
2018-11-13T07:07:44.962Z,12.12
2018-11-13T07:10:16.104Z,12.08
2018-11-13T07:12:46.347Z,12.04
2018-11-13T07:15:19.440Z,12.00
2018-11-13T07:17:49.585Z,11.99
2018-11-13T07:20:19.704Z,11.97
2018-11-13T07:22:48.704Z,11.92
2018-11-13T07:25:17.799Z,11.89
2018-11-13T07:27:47.086Z,11.83
2018-11-13T07:30:17.127Z,11.75
2018-11-13T07:32:46.108Z,11.73
2018-11-13T07:35:16.208Z,11.76
2018-11-13T07:37:53.974Z,11.74
2018-11-13T07:40:23.036Z,11.73
2018-11-13T07:42:52.245Z,11.70
2018-11-13T07:45:21.288Z,11.71
2018-11-13T07:47:50.810Z,11.74
2018-11-13T07:50:19.657Z,11.74
2018-11-13T07:52:48.631Z,11.80
2018-11-13T07:55:17.776Z,11.87
2018-11-13T07:57:46.752Z,11.86
2018-11-13T08:00:17.860Z,11.84
2018-11-13T08:02:48.224Z,11.82
2018-11-13T08:05:17.333Z,11.84
2018-11-13T08:07:46.324Z,11.91
2018-11-13T08:10:15.559Z,11.95
2018-11-13T08:12:44.699Z,11.98
2018-11-13T08:15:16.895Z,11.98
2018-11-13T08:17:45.945Z,11.96
2018-11-13T08:20:15.705Z,11.92
2018-11-13T08:22:44.958Z,11.96
2018-11-13T08:25:13.981Z,11.96
2018-11-13T08:27:43.348Z,11.98
2018-11-13T08:30:14.336Z,11.99
2018-11-13T08:32:43.942Z,11.94
2018-11-13T08:35:13.008Z,11.94
2018-11-13T08:37:41.992Z,11.91
2018-11-13T08:40:12.933Z,11.91
2018-11-13T08:42:42.492Z,11.87
2018-11-13T08:45:12.292Z,11.90
2018-11-13T08:47:41.763Z,11.86
2018-11-13T08:50:11.332Z,11.87
2018-11-13T08:52:40.788Z,11.83
2018-11-13T08:55:10.444Z,11.87
2018-11-13T08:57:39.552Z,11.90
2018-11-13T09:00:10.504Z,11.91
2018-11-13T09:02:39.795Z,11.85
2018-11-13T09:05:09.422Z,11.85
2018-11-13T09:07:38.404Z,11.82
2018-11-13T09:10:09.115Z,11.81
2018-11-13T09:12:38.353Z,11.86
2018-11-13T09:15:11.100Z,11.82
2018-11-13T09:17:40.148Z,11.81
2018-11-13T09:20:10.873Z,11.81
2018-11-13T09:22:39.965Z,11.82
2018-11-13T09:25:11.388Z,11.80
2018-11-13T09:27:40.414Z,11.85
2018-11-13T09:30:11.607Z,11.80
2018-11-13T09:32:41.166Z,11.79
2018-11-13T09:35:11.651Z,11.77
2018-11-13T09:37:40.685Z,11.74
2018-11-13T09:40:12.681Z,11.76
2018-11-13T09:42:42.264Z,11.74
2018-11-13T09:45:12.152Z,11.73
2018-11-13T09:47:41.298Z,11.73
2018-11-13T09:50:12.815Z,11.77
2018-11-13T09:52:42.768Z,11.77
2018-11-13T09:55:13.473Z,11.74
2018-11-13T09:57:42.465Z,11.74
2018-11-13T10:00:16.974Z,11.74
2018-11-13T10:02:48.770Z,11.69
2018-11-13T10:05:18.298Z,11.73
2018-11-13T10:07:47.479Z,11.81
2018-11-13T10:10:16.520Z,11.75
2018-11-13T10:12:45.451Z,11.74
2018-11-13T10:15:22.476Z,11.72
2018-11-13T10:17:51.581Z,11.80
2018-11-13T10:20:20.440Z,11.77
2018-11-13T10:22:50.780Z,11.77
2018-11-13T10:25:19.780Z,11.82
2018-11-13T10:27:48.942Z,11.84
2018-11-13T10:30:19.012Z,11.75
2018-11-13T10:32:48.334Z,11.76
2018-11-13T10:35:18.604Z,11.74
2018-11-13T10:37:47.771Z,11.81
2018-11-13T10:40:17.985Z,11.90
2018-11-13T10:42:46.900Z,12.02
2018-11-13T10:45:18.229Z,12.05
2018-11-13T10:47:47.212Z,12.06
2018-11-13T10:50:17.971Z,12.15
2018-11-13T10:52:46.899Z,12.12
2018-11-13T10:55:15.905Z,12.11
2018-11-13T10:57:45.049Z,12.02
2018-11-13T11:00:20.171Z,12.05
2018-11-13T11:02:54.556Z,12.11
2018-11-13T11:05:25.452Z,12.00
2018-11-13T11:07:54.440Z,11.98
2018-11-13T11:10:23.439Z,11.98
2018-11-13T11:12:52.457Z,12.00
2018-11-13T11:15:21.412Z,12.00
2018-11-13T11:17:50.424Z,11.92
2018-11-13T11:20:19.408Z,11.95
2018-11-13T11:22:48.513Z,11.94
2018-11-13T11:25:17.490Z,11.94
2018-11-13T11:27:46.405Z,12.02
2018-11-13T11:30:16.084Z,12.05
2018-11-13T11:32:45.086Z,12.06
2018-11-13T11:35:14.524Z,12.11
2018-11-13T11:37:43.516Z,12.23
2018-11-13T11:40:12.919Z,12.31
2018-11-13T11:42:41.920Z,12.55
2018-11-13T11:45:12.602Z,12.64
2018-11-13T11:47:41.676Z,12.63
2018-11-13T11:50:11.707Z,12.56
2018-11-13T11:52:40.720Z,12.50
2018-11-13T11:55:10.352Z,12.55
2018-11-13T11:57:39.348Z,12.49
2018-11-13T12:00:10.135Z,12.55
2018-11-13T12:02:39.140Z,12.66
2018-11-13T12:05:08.708Z,12.67
2018-11-13T12:07:38.074Z,12.78
2018-11-13T12:10:08.854Z,12.78
2018-11-13T12:12:37.898Z,12.74
2018-11-13T12:15:08.107Z,12.76
2018-11-13T12:17:37.175Z,13.16
2018-11-13T12:20:07.352Z,13.36
2018-11-13T12:22:36.339Z,13.26
2018-11-13T12:25:07.200Z,13.00
2018-11-13T12:27:36.204Z,12.96
2018-11-13T12:30:07.355Z,13.04
2018-11-13T12:32:36.412Z,13.05
2018-11-13T12:35:05.647Z,13.11
2018-11-13T12:37:34.679Z,13.45
2018-11-13T12:40:03.752Z,13.59
2018-11-13T12:42:32.764Z,13.58
2018-11-13T12:45:01.768Z,13.37
2018-11-13T12:47:30.767Z,13.27
2018-11-13T12:49:59.747Z,13.18
2018-11-13T12:52:28.739Z,13.18
2018-11-13T12:54:57.723Z,13.13
2018-11-13T12:57:26.728Z,12.96
2018-11-13T12:59:55.708Z,12.84
2018-11-13T13:02:24.852Z,12.85
2018-11-13T13:04:53.809Z,12.79
2018-11-13T13:07:22.806Z,12.79
2018-11-13T13:09:51.785Z,12.77
2018-11-13T13:12:20.799Z,12.79
2018-11-13T13:14:49.816Z,12.80
2018-11-13T13:17:18.777Z,12.85
2018-11-13T13:19:47.755Z,12.84
2018-11-13T13:22:16.974Z,12.92
2018-11-13T13:24:45.852Z,13.03
2018-11-13T13:27:14.996Z,12.98
2018-11-13T13:29:43.989Z,12.89
2018-11-13T13:32:12.990Z,12.85
2018-11-13T13:34:41.964Z,13.09
2018-11-13T13:37:10.963Z,13.16
2018-11-13T13:39:39.960Z,13.15
2018-11-13T13:42:08.940Z,13.03
2018-11-13T13:44:37.939Z,12.91
2018-11-13T13:47:06.930Z,13.05
2018-11-13T13:49:35.932Z,13.26
2018-11-13T13:52:05.225Z,13.16
2018-11-13T13:54:34.302Z,13.10
2018-11-13T13:57:03.243Z,13.06
2018-11-13T13:59:32.293Z,12.94
2018-11-13T14:02:01.240Z,13.13
2018-11-13T14:04:30.358Z,13.26
2018-11-13T14:06:59.340Z,13.27
2018-11-13T14:09:28.350Z,13.04
2018-11-13T14:11:57.319Z,12.94
2018-11-13T14:14:26.315Z,12.94
2018-11-13T14:16:55.308Z,12.94
2018-11-13T14:19:24.323Z,13.21
2018-11-13T14:21:53.317Z,13.41
2018-11-13T14:24:22.318Z,13.37
2018-11-13T14:26:51.291Z,13.49
2018-11-13T14:29:20.320Z,13.52
2018-11-13T14:31:49.557Z,13.46
2018-11-13T14:34:18.520Z,13.39
2018-11-13T14:36:47.504Z,13.36
2018-11-13T14:39:16.803Z,13.35
2018-11-13T14:41:45.868Z,13.36
2018-11-13T14:44:14.867Z,13.24
2018-11-13T14:46:43.856Z,13.30
2018-11-13T14:49:12.855Z,13.32
2018-11-13T14:51:41.848Z,13.20
2018-11-13T14:54:10.840Z,13.11
2018-11-13T14:56:39.824Z,13.08
2018-11-13T14:59:08.825Z,12.89
2018-11-13T15:01:37.890Z,12.77
2018-11-13T15:04:07.699Z,12.68
2018-11-13T15:06:36.684Z,12.56
2018-11-13T15:09:07.287Z,12.59
2018-11-13T15:11:36.432Z,12.53
2018-11-13T15:14:05.461Z,12.46
2018-11-13T15:16:34.444Z,12.45
2018-11-13T15:19:03.456Z,12.35
2018-11-13T15:21:32.445Z,12.31
2018-11-13T15:24:01.458Z,12.25
2018-11-13T15:26:30.497Z,12.24
2018-11-13T15:28:59.472Z,12.05
2018-11-13T15:31:28.461Z,12.11
2018-11-13T15:33:57.637Z,11.94
2018-11-13T15:36:26.645Z,11.88
2018-11-13T15:38:55.628Z,11.74
2018-11-13T15:41:24.632Z,11.79
2018-11-13T15:43:53.634Z,11.56
2018-11-13T15:46:22.632Z,11.40
2018-11-13T15:48:51.684Z,11.28
2018-11-13T15:51:20.865Z,11.28
2018-11-13T15:53:49.824Z,11.08
2018-11-13T15:56:18.854Z,10.81
2018-11-13T15:58:47.876Z,10.78
2018-11-13T16:01:16.868Z,10.66
2018-11-13T16:03:45.852Z,10.51
2018-11-13T16:06:14.901Z,10.38
2018-11-13T16:08:44.038Z,10.22
2018-11-13T16:11:12.837Z,10.08
2018-11-13T16:13:41.832Z,10.07
2018-11-13T16:16:10.965Z,9.95
2018-11-13T16:18:40.079Z,9.79
2018-11-13T16:21:09.005Z,9.74
2018-11-13T16:23:37.975Z,9.59
2018-11-13T16:26:06.983Z,9.42
2018-11-13T16:28:35.984Z,9.30
2018-11-13T16:31:05.268Z,9.16
2018-11-13T16:33:34.248Z,9.02
2018-11-13T16:36:03.265Z,8.88
2018-11-13T16:38:32.263Z,8.79
2018-11-13T16:41:01.240Z,8.72
2018-11-13T16:43:30.225Z,8.69
2018-11-13T16:45:59.214Z,8.56
2018-11-13T16:48:28.266Z,8.49
2018-11-13T16:50:57.244Z,8.42
2018-11-13T16:53:26.208Z,8.47
2018-11-13T16:56:03.741Z,8.39
2018-11-13T16:58:32.828Z,8.32
2018-11-13T17:01:01.934Z,8.32
2018-11-13T17:03:30.917Z,8.31
2018-11-13T17:05:59.926Z,8.49
2018-11-13T17:08:28.855Z,8.42
2018-11-13T17:10:57.847Z,8.40
2018-11-13T17:13:26.836Z,8.43
2018-11-13T17:15:55.841Z,8.37
2018-11-13T17:18:24.819Z,8.43
2018-11-13T17:20:53.844Z,8.35
2018-11-13T17:23:23.299Z,8.37
2018-11-13T17:25:52.305Z,8.40
2018-11-13T17:28:21.276Z,8.40
2018-11-13T17:30:50.289Z,8.44
2018-11-13T17:33:19.298Z,8.50
2018-11-13T17:35:48.292Z,8.61
2018-11-13T17:38:17.276Z,8.69
2018-11-13T17:40:46.275Z,8.74
2018-11-13T17:43:15.388Z,8.77
2018-11-13T17:45:44.589Z,8.79
2018-11-13T17:48:13.600Z,8.88
2018-11-13T17:50:43.487Z,8.97
2018-11-13T17:53:12.994Z,9.26
2018-11-13T17:55:42.091Z,9.53
2018-11-13T17:58:12.800Z,9.75
2018-11-13T18:00:42.975Z,9.53
2018-11-13T18:03:13.115Z,9.38
2018-11-13T18:05:42.591Z,9.67
2018-11-13T18:08:12.051Z,9.75
2018-11-13T18:10:42.059Z,9.97
2018-11-13T18:13:11.064Z,10.08
2018-11-13T18:15:40.071Z,9.91
2018-11-13T18:18:09.476Z,10.09
2018-11-13T18:20:39.491Z,10.32
2018-11-13T18:23:08.808Z,10.37
2018-11-13T18:25:37.874Z,10.44
2018-11-13T18:28:07.240Z,10.43
2018-11-13T18:30:37.761Z,10.57
2018-11-13T18:33:07.431Z,10.57
2018-11-13T18:35:37.560Z,10.49
2018-11-13T18:38:07.983Z,10.33
2018-11-13T18:40:36.967Z,10.21
2018-11-13T18:43:06.436Z,10.28
2018-11-13T18:45:36.921Z,10.12
2018-11-13T18:48:05.989Z,10.12
2018-11-13T18:50:38.582Z,10.32
2018-11-13T18:53:07.596Z,10.22
2018-11-13T18:55:36.696Z,10.32
2018-11-13T18:58:05.948Z,10.59
2018-11-13T19:00:36.335Z,10.73
2018-11-13T19:03:06.597Z,10.93
2018-11-13T19:05:35.585Z,10.94
2018-11-13T19:08:04.587Z,10.99
2018-11-13T19:10:40.992Z,10.93
2018-11-13T19:13:11.632Z,11.00
2018-11-13T19:15:42.150Z,11.13
2018-11-13T19:18:11.711Z,11.12
2018-11-13T19:20:40.839Z,11.09
2018-11-13T19:23:09.839Z,10.98
2018-11-13T19:25:39.341Z,10.86
2018-11-13T19:28:08.488Z,10.78
2018-11-13T19:30:37.512Z,10.66
2018-11-13T19:33:06.520Z,10.48
2018-11-13T19:35:35.627Z,10.49
2018-11-13T19:38:04.624Z,10.68
2018-11-13T19:40:34.540Z,10.55
2018-11-13T19:43:05.254Z,10.71
2018-11-13T19:45:34.264Z,10.78
2018-11-13T19:48:03.290Z,10.67
2018-11-13T19:50:33.786Z,10.66
2018-11-13T19:53:02.797Z,10.51
2018-11-13T19:55:32.288Z,10.36
2018-11-13T19:58:01.508Z,10.16
2018-11-13T20:00:32.836Z,10.19
2018-11-13T20:03:04.604Z,10.15
2018-11-13T20:05:33.619Z,9.93
2018-11-13T20:08:02.802Z,9.98
2018-11-13T20:10:33.013Z,10.10
2018-11-13T20:13:03.144Z,9.80
2018-11-13T20:15:32.992Z,9.53
2018-11-13T20:18:02.018Z,9.36
2018-11-13T20:20:31.964Z,9.16
2018-11-13T20:23:02.192Z,9.31
2018-11-13T20:25:32.311Z,9.26
2018-11-13T20:28:01.344Z,9.04
2018-11-13T20:30:32.649Z,8.88
2018-11-13T20:33:01.696Z,8.73
2018-11-13T20:35:30.671Z,8.66
2018-11-13T20:38:00.143Z,8.51
2018-11-13T20:40:30.353Z,8.50
2018-11-13T20:43:00.800Z,8.39
2018-11-13T20:45:30.115Z,8.25
2018-11-13T20:47:59.116Z,8.13
2018-11-13T20:50:29.305Z,7.98
2018-11-13T20:52:58.296Z,7.98
2018-11-13T20:55:27.648Z,7.92
2018-11-13T20:57:56.920Z,7.87
2018-11-13T21:00:32.150Z,7.84
2018-11-13T21:03:01.163Z,7.84
2018-11-13T21:05:30.196Z,7.77
2018-11-13T21:07:59.192Z,7.69
2018-11-13T21:10:36.175Z,7.67
2018-11-13T21:13:05.413Z,7.60
2018-11-13T21:15:34.391Z,7.58
2018-11-13T21:18:03.452Z,7.62
2018-11-13T21:20:32.443Z,7.58
2018-11-13T21:23:01.447Z,7.57
2018-11-13T21:25:30.436Z,7.61
2018-11-13T21:28:00.733Z,7.66
2018-11-13T21:30:29.668Z,7.62
2018-11-13T21:32:58.575Z,7.64
2018-11-13T21:35:27.687Z,7.59
2018-11-13T21:37:57.380Z,7.60
2018-11-13T21:40:27.397Z,7.53
2018-11-13T21:42:56.944Z,7.51
2018-11-13T21:45:26.760Z,7.46
2018-11-13T21:47:55.877Z,7.47
2018-11-13T21:50:26.526Z,7.44
2018-11-13T21:52:55.307Z,7.41
2018-11-13T21:55:25.431Z,7.36
2018-11-13T21:57:54.364Z,7.28
2018-11-13T22:00:25.180Z,7.31
2018-11-13T22:02:55.668Z,7.36
2018-11-13T22:05:25.615Z,7.33
2018-11-13T22:07:54.600Z,7.38
2018-11-13T22:10:23.600Z,7.41
2018-11-13T22:12:52.588Z,7.38
2018-11-13T22:15:23.095Z,7.32
2018-11-13T22:17:51.728Z,7.30
2018-11-13T22:20:21.360Z,7.21
2018-11-13T22:22:51.690Z,7.15
2018-11-13T22:25:21.872Z,7.14
2018-11-13T22:27:52.083Z,7.18
2018-11-13T22:30:22.340Z,7.08
2018-11-13T22:32:51.335Z,7.09
2018-11-13T22:35:21.112Z,7.03
2018-11-13T22:37:50.177Z,6.98
2018-11-13T22:40:21.367Z,6.95
2018-11-13T22:42:50.669Z,6.95
2018-11-13T22:45:20.959Z,6.99
2018-11-13T22:47:50.035Z,6.95
2018-11-13T22:50:20.392Z,6.94
2018-11-13T22:52:49.560Z,6.97
2018-11-13T22:55:18.955Z,7.01
2018-11-13T22:57:48.781Z,6.99
2018-11-13T23:00:22.727Z,6.90
2018-11-13T23:02:52.939Z,6.87
2018-11-13T23:05:22.004Z,6.86
2018-11-13T23:07:50.988Z,6.88
2018-11-13T23:10:19.977Z,6.90
2018-11-13T23:12:48.971Z,6.83
2018-11-13T23:15:19.259Z,6.79
2018-11-13T23:17:48.192Z,6.75
2018-11-13T23:20:18.339Z,6.75
2018-11-13T23:22:47.315Z,6.75
2018-11-13T23:25:17.518Z,6.64
2018-11-13T23:27:47.335Z,6.66
2018-11-13T23:30:18.233Z,6.64
2018-11-13T23:32:47.362Z,6.64
2018-11-13T23:35:16.484Z,6.53
2018-11-13T23:37:46.613Z,6.47
2018-11-13T23:40:17.733Z,6.48
2018-11-13T23:42:47.074Z,6.53
2018-11-13T23:45:17.028Z,6.52
2018-11-13T23:47:46.263Z,6.49
2018-11-13T23:50:15.439Z,6.45
2018-11-13T23:52:44.922Z,6.44
2018-11-13T23:55:14.416Z,6.42
2018-11-13T23:57:43.933Z,6.41
